EZY97CB EHAM-EGCC
Flight info
| Callsign | EZY97CB |
|---|---|
| Flight time | 0h 55m |
| Altitude | 34000 |
| Route | BERGI L60 OTBED |
| Aircraft | A320/M-SDE3FGHIRWY/LB1 |
Departure
| Time | 2026-05-06 18:11 |
|---|---|
| Airport | Amsterdam Airport Schiphol (EHAM) |
Arrival
| Time | 2026-05-06 19:06 |
|---|---|
| Airport | Manchester Airport (EGCC) |
| Time | Latitude | Longitude | Altitude | Speed | Heading |
|---|---|---|---|---|---|
| 2026-05-06 17:34 | 52.31044 | 4.75518 | -2 ft | 0 kts | 148° |
| 2026-05-06 17:44 | 52.31045 | 4.75518 | -2 ft | 0 kts | 148° |
| 2026-05-06 17:59 | 52.31046 | 4.75517 | -2 ft | 1 kts | 148° |
| 2026-05-06 18:00 | 52.31059 | 4.75503 | -2 ft | 3 kts | 143° |
| 2026-05-06 18:00 | 52.31074 | 4.75482 | -2 ft | 3 kts | 124° |
| 2026-05-06 18:00 | 52.31081 | 4.75457 | -2 ft | 2 kts | 83° |
| 2026-05-06 18:00 | 52.31081 | 4.75446 | -2 ft | 0 kts | 73° |
| 2026-05-06 18:03 | 52.31090 | 4.75461 | -2 ft | 4 kts | 46° |
| 2026-05-06 18:03 | 52.31155 | 4.75493 | -2 ft | 15 kts | 357° |
| 2026-05-06 18:03 | 52.31269 | 4.75484 | -2 ft | 17 kts | 357° |
| 2026-05-06 18:04 | 52.31381 | 4.75474 | -2 ft | 14 kts | 356° |
| 2026-05-06 18:04 | 52.31479 | 4.75466 | -2 ft | 11 kts | 356° |
| 2026-05-06 18:04 | 52.31510 | 4.75380 | -3 ft | 9 kts | 274° |
| 2026-05-06 18:04 | 52.31507 | 4.75268 | -3 ft | 11 kts | 267° |
| 2026-05-06 18:05 | 52.31499 | 4.75089 | -3 ft | 20 kts | 266° |
| 2026-05-06 18:05 | 52.31495 | 4.74867 | -2 ft | 19 kts | 269° |
| 2026-05-06 18:05 | 52.31488 | 4.74665 | -2 ft | 17 kts | 265° |
| 2026-05-06 18:05 | 52.31481 | 4.74478 | -2 ft | 16 kts | 266° |
| 2026-05-06 18:06 | 52.31475 | 4.74306 | -2 ft | 15 kts | 266° |
| 2026-05-06 18:06 | 52.31435 | 4.74168 | -2 ft | 13 kts | 220° |
| 2026-05-06 18:06 | 52.31352 | 4.74132 | -2 ft | 12 kts | 184° |
| 2026-05-06 18:06 | 52.31271 | 4.74124 | -2 ft | 11 kts | 183° |
| 2026-05-06 18:07 | 52.31196 | 4.74117 | -2 ft | 10 kts | 183° |
| 2026-05-06 18:07 | 52.31103 | 4.74109 | -3 ft | 15 kts | 183° |
| 2026-05-06 18:07 | 52.31003 | 4.74099 | -3 ft | 14 kts | 185° |
| 2026-05-06 18:07 | 52.30912 | 4.74088 | -3 ft | 13 kts | 184° |
| 2026-05-06 18:08 | 52.30828 | 4.74080 | -3 ft | 12 kts | 183° |
| 2026-05-06 18:08 | 52.30749 | 4.74073 | -3 ft | 11 kts | 183° |
| 2026-05-06 18:08 | 52.30668 | 4.74066 | -2 ft | 16 kts | 184° |
| 2026-05-06 18:08 | 52.30529 | 4.74053 | -2 ft | 21 kts | 181° |
| 2026-05-06 18:09 | 52.30392 | 4.74045 | -2 ft | 19 kts | 184° |
| 2026-05-06 18:09 | 52.30287 | 4.73996 | -2 ft | 15 kts | 211° |
| 2026-05-06 18:09 | 52.30210 | 4.73888 | -4 ft | 15 kts | 231° |
| 2026-05-06 18:09 | 52.30216 | 4.73757 | -4 ft | 13 kts | 324° |
| 2026-05-06 18:10 | 52.30325 | 4.73749 | -8 ft | 20 kts | 2° |
| 2026-05-06 18:10 | 52.30678 | 4.73782 | -3 ft | 86 kts | 3° |
| 2026-05-06 18:10 | 52.31473 | 4.73853 | -5 ft | 144 kts | 3° |
| 2026-05-06 18:10 | 52.32560 | 4.73954 | 458 ft | 158 kts | 2° |
| 2026-05-06 18:11 | 52.33647 | 4.73677 | 1266 ft | 161 kts | 352° |
| 2026-05-06 18:11 | 52.34396 | 4.73369 | 1547 ft | 175 kts | 350° |
| 2026-05-06 18:11 | 52.36127 | 4.72598 | 2157 ft | 209 kts | 349° |
| 2026-05-06 18:11 | 52.37613 | 4.71917 | 2690 ft | 234 kts | 348° |
| 2026-05-06 18:12 | 52.39247 | 4.71156 | 3409 ft | 250 kts | 347° |
| 2026-05-06 18:12 | 52.40932 | 4.70314 | 4384 ft | 257 kts | 340° |
| 2026-05-06 18:12 | 52.42519 | 4.68867 | 5417 ft | 263 kts | 332° |
| 2026-05-06 18:12 | 52.44086 | 4.67300 | 6437 ft | 267 kts | 333° |
| 2026-05-06 18:13 | 52.45679 | 4.65697 | 7334 ft | 271 kts | 331° |
| 2026-05-06 18:13 | 52.47298 | 4.64060 | 8295 ft | 275 kts | 329° |
| 2026-05-06 18:13 | 52.48935 | 4.62400 | 9249 ft | 278 kts | 328° |
| 2026-05-06 18:13 | 52.50596 | 4.60714 | 10141 ft | 283 kts | 328° |
| 2026-05-06 18:14 | 52.52335 | 4.58947 | 10534 ft | 306 kts | 328° |
| 2026-05-06 18:14 | 52.53562 | 4.57700 | 10750 ft | 321 kts | 328° |
| 2026-05-06 18:14 | 52.56141 | 4.55078 | 11623 ft | 332 kts | 327° |
| 2026-05-06 18:14 | 52.58124 | 4.53058 | 12372 ft | 337 kts | 327° |
| 2026-05-06 18:15 | 52.60125 | 4.51014 | 13202 ft | 340 kts | 327° |
| 2026-05-06 18:15 | 52.62153 | 4.48939 | 13905 ft | 346 kts | 327° |
| 2026-05-06 18:15 | 52.63515 | 4.47547 | 14400 ft | 347 kts | 327° |
| 2026-05-06 18:15 | 52.65497 | 4.45522 | 15098 ft | 350 kts | 326° |
| 2026-05-06 18:16 | 52.67566 | 4.43404 | 15773 ft | 354 kts | 326° |
| 2026-05-06 18:16 | 52.69684 | 4.41234 | 16489 ft | 357 kts | 325° |
| 2026-05-06 18:16 | 52.71789 | 4.39007 | 17129 ft | 361 kts | 321° |
| 2026-05-06 18:16 | 52.73653 | 4.36251 | 17778 ft | 362 kts | 310° |
| 2026-05-06 18:17 | 52.75165 | 4.32907 | 18367 ft | 365 kts | 299° |
| 2026-05-06 18:17 | 52.76246 | 4.29124 | 18911 ft | 367 kts | 288° |
| 2026-05-06 18:17 | 52.77054 | 4.25124 | 19526 ft | 368 kts | 287° |
| 2026-05-06 18:17 | 52.77865 | 4.21088 | 20069 ft | 372 kts | 287° |
| 2026-05-06 18:18 | 52.78685 | 4.17019 | 20660 ft | 374 kts | 287° |
| 2026-05-06 18:18 | 52.79512 | 4.12927 | 21215 ft | 377 kts | 287° |
| 2026-05-06 18:18 | 52.80343 | 4.08793 | 21775 ft | 380 kts | 286° |
| 2026-05-06 18:18 | 52.81177 | 4.04625 | 22281 ft | 384 kts | 286° |
| 2026-05-06 18:19 | 52.82010 | 4.00469 | 22813 ft | 387 kts | 286° |
| 2026-05-06 18:19 | 52.82858 | 3.96224 | 23348 ft | 389 kts | 286° |
| 2026-05-06 18:19 | 52.83704 | 3.91979 | 23782 ft | 393 kts | 287° |
| 2026-05-06 18:19 | 52.84562 | 3.87652 | 24176 ft | 397 kts | 286° |
| 2026-05-06 18:20 | 52.85421 | 3.83304 | 24645 ft | 398 kts | 286° |
| 2026-05-06 18:20 | 52.86281 | 3.78951 | 25092 ft | 400 kts | 286° |
| 2026-05-06 18:20 | 52.87144 | 3.74568 | 25474 ft | 403 kts | 286° |
| 2026-05-06 18:20 | 52.88017 | 3.70140 | 25926 ft | 404 kts | 286° |
| 2026-05-06 18:21 | 52.88890 | 3.65699 | 26308 ft | 407 kts | 286° |
| 2026-05-06 18:21 | 52.89764 | 3.61246 | 26697 ft | 410 kts | 286° |
| 2026-05-06 18:21 | 52.90645 | 3.56733 | 27081 ft | 412 kts | 285° |
| 2026-05-06 18:21 | 52.91528 | 3.52196 | 27494 ft | 415 kts | 286° |
| 2026-05-06 18:22 | 52.92415 | 3.47635 | 27887 ft | 417 kts | 286° |
| 2026-05-06 18:22 | 52.93301 | 3.43086 | 28227 ft | 420 kts | 286° |
| 2026-05-06 18:22 | 52.94197 | 3.38462 | 28633 ft | 422 kts | 287° |
| 2026-05-06 18:22 | 52.95091 | 3.33831 | 28960 ft | 424 kts | 286° |
| 2026-05-06 18:23 | 52.95990 | 3.29150 | 29339 ft | 426 kts | 286° |
| 2026-05-06 18:23 | 52.96889 | 3.24451 | 29702 ft | 428 kts | 286° |
| 2026-05-06 18:23 | 52.97791 | 3.19737 | 30011 ft | 431 kts | 286° |
| 2026-05-06 18:23 | 52.98700 | 3.14987 | 30300 ft | 433 kts | 286° |
| 2026-05-06 18:24 | 52.99611 | 3.10210 | 30566 ft | 435 kts | 286° |
| 2026-05-06 18:24 | 53.00521 | 3.05412 | 30838 ft | 437 kts | 286° |
| 2026-05-06 18:24 | 53.01432 | 3.00588 | 31250 ft | 435 kts | 285° |
| 2026-05-06 18:24 | 53.02336 | 2.95811 | 31667 ft | 434 kts | 285° |
| 2026-05-06 18:25 | 53.03240 | 2.91031 | 32070 ft | 433 kts | 285° |
| 2026-05-06 18:25 | 53.04140 | 2.86269 | 32458 ft | 432 kts | 285° |
| 2026-05-06 18:25 | 53.05037 | 2.81510 | 32856 ft | 431 kts | 285° |
| 2026-05-06 18:25 | 53.05926 | 2.76759 | 33246 ft | 430 kts | 285° |
| 2026-05-06 18:26 | 53.06813 | 2.72000 | 33645 ft | 429 kts | 285° |
| 2026-05-06 18:26 | 53.07680 | 2.67344 | 33949 ft | 429 kts | 285° |
| 2026-05-06 18:26 | 53.09428 | 2.57925 | 34010 ft | 424 kts | 285° |
| 2026-05-06 18:27 | 53.11009 | 2.48514 | 34014 ft | 421 kts | 277° |
| 2026-05-06 18:27 | 53.11796 | 2.38884 | 34013 ft | 420 kts | 276° |
| 2026-05-06 18:28 | 53.12589 | 2.29234 | 34013 ft | 420 kts | 276° |
| 2026-05-06 18:28 | 53.13381 | 2.19607 | 34015 ft | 420 kts | 276° |
| 2026-05-06 18:29 | 53.14160 | 2.09966 | 34016 ft | 420 kts | 276° |
| 2026-05-06 18:29 | 53.14921 | 2.00333 | 34022 ft | 419 kts | 276° |
| 2026-05-06 18:30 | 53.15673 | 1.90685 | 34026 ft | 419 kts | 276° |
| 2026-05-06 18:30 | 53.16419 | 1.81081 | 34027 ft | 418 kts | 276° |
| 2026-05-06 18:31 | 53.17153 | 1.71515 | 34028 ft | 418 kts | 276° |
| 2026-05-06 18:31 | 53.17886 | 1.61893 | 34028 ft | 418 kts | 276° |
| 2026-05-06 18:32 | 53.18604 | 1.52307 | 34031 ft | 418 kts | 276° |
| 2026-05-06 18:32 | 53.19320 | 1.42718 | 34029 ft | 419 kts | 276° |
| 2026-05-06 18:33 | 53.20029 | 1.33070 | 34028 ft | 419 kts | 276° |
| 2026-05-06 18:33 | 53.20733 | 1.23435 | 34029 ft | 419 kts | 276° |
| 2026-05-06 18:34 | 53.21424 | 1.13761 | 34032 ft | 419 kts | 275° |
| 2026-05-06 18:34 | 53.22114 | 1.04093 | 34034 ft | 419 kts | 275° |
| 2026-05-06 18:35 | 53.22798 | 0.94406 | 34026 ft | 420 kts | 276° |
| 2026-05-06 18:35 | 53.23466 | 0.84764 | 34022 ft | 421 kts | 276° |
| 2026-05-06 18:36 | 53.24123 | 0.75062 | 34027 ft | 421 kts | 276° |
| 2026-05-06 18:36 | 53.24780 | 0.65330 | 33632 ft | 422 kts | 276° |
| 2026-05-06 18:37 | 53.25111 | 0.60454 | 33233 ft | 422 kts | 276° |
| 2026-05-06 18:37 | 53.25441 | 0.55569 | 32832 ft | 423 kts | 276° |
| 2026-05-06 18:37 | 53.25768 | 0.50666 | 32426 ft | 424 kts | 276° |
| 2026-05-06 18:37 | 53.26091 | 0.45779 | 32035 ft | 425 kts | 276° |
| 2026-05-06 18:38 | 53.26412 | 0.40848 | 31646 ft | 426 kts | 276° |
| 2026-05-06 18:38 | 53.26726 | 0.35989 | 31266 ft | 427 kts | 276° |
| 2026-05-06 18:38 | 53.27044 | 0.31065 | 30903 ft | 425 kts | 276° |
| 2026-05-06 18:38 | 53.27359 | 0.26159 | 30557 ft | 423 kts | 276° |
| 2026-05-06 18:39 | 53.27669 | 0.21298 | 30278 ft | 421 kts | 276° |
| 2026-05-06 18:39 | 53.27974 | 0.16444 | 30041 ft | 419 kts | 276° |
| 2026-05-06 18:39 | 53.28272 | 0.11608 | 29752 ft | 417 kts | 276° |
| 2026-05-06 18:40 | 53.29275 | 0.02167 | 28873 ft | 409 kts | 289° |
| 2026-05-06 18:40 | 53.30388 | -0.02220 | 28446 ft | 409 kts | 296° |
| 2026-05-06 18:40 | 53.31649 | -0.06482 | 27988 ft | 408 kts | 296° |
| 2026-05-06 18:40 | 53.32898 | -0.10753 | 27524 ft | 406 kts | 296° |
| 2026-05-06 18:41 | 53.34127 | -0.14977 | 27077 ft | 403 kts | 296° |
| 2026-05-06 18:41 | 53.35349 | -0.19185 | 26626 ft | 400 kts | 295° |
| 2026-05-06 18:41 | 53.36559 | -0.23354 | 26182 ft | 398 kts | 295° |
| 2026-05-06 18:41 | 53.37766 | -0.27513 | 25725 ft | 395 kts | 295° |
| 2026-05-06 18:42 | 53.38962 | -0.31638 | 25290 ft | 392 kts | 295° |
| 2026-05-06 18:42 | 53.40151 | -0.35746 | 24857 ft | 390 kts | 295° |
| 2026-05-06 18:42 | 53.41326 | -0.39821 | 24417 ft | 387 kts | 295° |
| 2026-05-06 18:42 | 53.42494 | -0.43874 | 23982 ft | 385 kts | 295° |
| 2026-05-06 18:43 | 53.43642 | -0.47864 | 23538 ft | 383 kts | 295° |
| 2026-05-06 18:43 | 53.44794 | -0.51880 | 23101 ft | 381 kts | 295° |
| 2026-05-06 18:43 | 53.45936 | -0.55870 | 22674 ft | 379 kts | 295° |
| 2026-05-06 18:43 | 53.47078 | -0.59857 | 22248 ft | 376 kts | 295° |
| 2026-05-06 18:44 | 53.48208 | -0.63794 | 21810 ft | 374 kts | 295° |
| 2026-05-06 18:44 | 53.49339 | -0.67743 | 21404 ft | 372 kts | 295° |
| 2026-05-06 18:44 | 53.50453 | -0.71640 | 20980 ft | 370 kts | 295° |
| 2026-05-06 18:44 | 53.51561 | -0.75527 | 20575 ft | 368 kts | 295° |
| 2026-05-06 18:45 | 53.52663 | -0.79406 | 20162 ft | 366 kts | 295° |
| 2026-05-06 18:45 | 53.53742 | -0.83210 | 19755 ft | 364 kts | 295° |
| 2026-05-06 18:45 | 53.54829 | -0.87046 | 19342 ft | 362 kts | 295° |
| 2026-05-06 18:45 | 53.55906 | -0.90858 | 18934 ft | 360 kts | 295° |
| 2026-05-06 18:46 | 53.56976 | -0.94658 | 18530 ft | 358 kts | 295° |
| 2026-05-06 18:46 | 53.58038 | -0.98446 | 18095 ft | 356 kts | 295° |
| 2026-05-06 18:46 | 53.59095 | -1.02219 | 17692 ft | 354 kts | 295° |
| 2026-05-06 18:46 | 53.60141 | -1.05954 | 17295 ft | 352 kts | 295° |
| 2026-05-06 18:47 | 53.61005 | -1.09800 | 16921 ft | 349 kts | 285° |
| 2026-05-06 18:47 | 53.61552 | -1.13774 | 16717 ft | 349 kts | 283° |
| 2026-05-06 18:47 | 53.62093 | -1.17751 | 16477 ft | 348 kts | 283° |
| 2026-05-06 18:47 | 53.62633 | -1.21697 | 16239 ft | 347 kts | 283° |
| 2026-05-06 18:48 | 53.63178 | -1.25682 | 15989 ft | 346 kts | 283° |
| 2026-05-06 18:48 | 53.63718 | -1.29626 | 15747 ft | 345 kts | 283° |
| 2026-05-06 18:48 | 53.64254 | -1.33543 | 15506 ft | 343 kts | 283° |
| 2026-05-06 18:48 | 53.64780 | -1.37412 | 15271 ft | 342 kts | 283° |
| 2026-05-06 18:49 | 53.65309 | -1.41325 | 15030 ft | 341 kts | 283° |
| 2026-05-06 18:49 | 53.65835 | -1.45223 | 14791 ft | 340 kts | 283° |
| 2026-05-06 18:49 | 53.66352 | -1.49080 | 14543 ft | 338 kts | 283° |
| 2026-05-06 18:49 | 53.66870 | -1.52949 | 14313 ft | 337 kts | 283° |
| 2026-05-06 18:50 | 53.67213 | -1.55517 | 14162 ft | 337 kts | 283° |
| 2026-05-06 18:50 | 53.67899 | -1.60655 | 13847 ft | 335 kts | 283° |
| 2026-05-06 18:50 | 53.68407 | -1.64491 | 13593 ft | 334 kts | 283° |
| 2026-05-06 18:50 | 53.68912 | -1.68318 | 13361 ft | 334 kts | 283° |
| 2026-05-06 18:51 | 53.69415 | -1.72125 | 13129 ft | 333 kts | 283° |
| 2026-05-06 18:51 | 53.69915 | -1.75936 | 12900 ft | 331 kts | 283° |
| 2026-05-06 18:51 | 53.70412 | -1.79731 | 12671 ft | 330 kts | 283° |
| 2026-05-06 18:51 | 53.70906 | -1.83499 | 12429 ft | 329 kts | 283° |
| 2026-05-06 18:52 | 53.71393 | -1.87219 | 12219 ft | 328 kts | 283° |
| 2026-05-06 18:52 | 53.71883 | -1.90975 | 11996 ft | 327 kts | 283° |
| 2026-05-06 18:52 | 53.72368 | -1.94709 | 11773 ft | 325 kts | 283° |
| 2026-05-06 18:52 | 53.72840 | -1.98374 | 11610 ft | 313 kts | 282° |
| 2026-05-06 18:53 | 53.73295 | -2.01906 | 11469 ft | 301 kts | 282° |
| 2026-05-06 18:53 | 53.73733 | -2.05307 | 11317 ft | 291 kts | 282° |
| 2026-05-06 18:53 | 53.73909 | -2.08639 | 11108 ft | 284 kts | 265° |
| 2026-05-06 18:53 | 53.73378 | -2.11829 | 10799 ft | 282 kts | 247° |
| 2026-05-06 18:54 | 53.72446 | -2.14740 | 10427 ft | 283 kts | 233° |
| 2026-05-06 18:54 | 53.71093 | -2.17143 | 10112 ft | 284 kts | 225° |
| 2026-05-06 18:54 | 53.69624 | -2.19404 | 9861 ft | 286 kts | 221° |
| 2026-05-06 18:54 | 53.68076 | -2.21516 | 9583 ft | 285 kts | 220° |
| 2026-05-06 18:55 | 53.66541 | -2.23575 | 9421 ft | 276 kts | 220° |
| 2026-05-06 18:55 | 53.65081 | -2.25516 | 9293 ft | 266 kts | 220° |
| 2026-05-06 18:55 | 53.63654 | -2.27400 | 9141 ft | 261 kts | 220° |
| 2026-05-06 18:55 | 53.62228 | -2.29276 | 8945 ft | 260 kts | 220° |
| 2026-05-06 18:56 | 53.60814 | -2.31143 | 8705 ft | 259 kts | 220° |
| 2026-05-06 18:56 | 53.59396 | -2.33025 | 8461 ft | 257 kts | 220° |
| 2026-05-06 18:56 | 53.57998 | -2.34875 | 8241 ft | 256 kts | 220° |
| 2026-05-06 18:56 | 53.56595 | -2.36723 | 7999 ft | 255 kts | 220° |
| 2026-05-06 18:57 | 53.55203 | -2.38551 | 7749 ft | 253 kts | 220° |
| 2026-05-06 18:57 | 53.53817 | -2.40372 | 7537 ft | 252 kts | 220° |
| 2026-05-06 18:57 | 53.52433 | -2.42190 | 7307 ft | 251 kts | 220° |
| 2026-05-06 18:57 | 53.51065 | -2.43996 | 7030 ft | 250 kts | 220° |
| 2026-05-06 18:58 | 53.49601 | -2.45570 | 6699 ft | 251 kts | 205° |
| 2026-05-06 18:58 | 53.47969 | -2.46576 | 6386 ft | 251 kts | 201° |
| 2026-05-06 18:58 | 53.46313 | -2.47483 | 6046 ft | 249 kts | 200° |
| 2026-05-06 18:58 | 53.44663 | -2.48385 | 5692 ft | 248 kts | 200° |
| 2026-05-06 18:59 | 53.43036 | -2.49291 | 5350 ft | 246 kts | 199° |
| 2026-05-06 18:59 | 53.41425 | -2.50216 | 5074 ft | 244 kts | 200° |
| 2026-05-06 18:59 | 53.39827 | -2.51165 | 4824 ft | 243 kts | 200° |
| 2026-05-06 18:59 | 53.38238 | -2.52125 | 4558 ft | 242 kts | 200° |
| 2026-05-06 19:00 | 53.36665 | -2.53099 | 4295 ft | 240 kts | 200° |
| 2026-05-06 19:00 | 53.35111 | -2.54090 | 4024 ft | 237 kts | 200° |
| 2026-05-06 19:00 | 53.33595 | -2.55085 | 3763 ft | 232 kts | 200° |
| 2026-05-06 19:00 | 53.32605 | -2.55740 | 3592 ft | 229 kts | 199° |
| 2026-05-06 19:01 | 53.30675 | -2.57058 | 3378 ft | 220 kts | 200° |
| 2026-05-06 19:01 | 53.29246 | -2.57916 | 3279 ft | 217 kts | 189° |
| 2026-05-06 19:01 | 53.27764 | -2.57752 | 3174 ft | 214 kts | 164° |
| 2026-05-06 19:01 | 53.26347 | -2.56983 | 3077 ft | 213 kts | 154° |
| 2026-05-06 19:02 | 53.25225 | -2.55453 | 3002 ft | 211 kts | 127° |
| 2026-05-06 19:02 | 53.24552 | -2.53336 | 3004 ft | 207 kts | 106° |
| 2026-05-06 19:02 | 53.24390 | -2.50960 | 3002 ft | 206 kts | 86° |
| 2026-05-06 19:02 | 53.24580 | -2.49380 | 2925 ft | 205 kts | 72° |
| 2026-05-06 19:03 | 53.25288 | -2.47327 | 2708 ft | 206 kts | 53° |
| 2026-05-06 19:03 | 53.26191 | -2.45481 | 2445 ft | 205 kts | 53° |
| 2026-05-06 19:03 | 53.27389 | -2.43029 | 2073 ft | 206 kts | 54° |
| 2026-05-06 19:03 | 53.28293 | -2.41174 | 1786 ft | 204 kts | 53° |
| 2026-05-06 19:04 | 53.29162 | -2.39386 | 1523 ft | 193 kts | 53° |
| 2026-05-06 19:04 | 53.29720 | -2.38241 | 1355 ft | 182 kts | 53° |
| 2026-05-06 19:04 | 53.30476 | -2.36672 | 1120 ft | 164 kts | 53° |
| 2026-05-06 19:04 | 53.31167 | -2.35243 | 851 ft | 153 kts | 53° |
| 2026-05-06 19:05 | 53.31814 | -2.33909 | 681 ft | 143 kts | 53° |
| 2026-05-06 19:05 | 53.32430 | -2.32636 | 499 ft | 141 kts | 51° |
| 2026-05-06 19:05 | 53.33041 | -2.31381 | 331 ft | 138 kts | 51° |
| 2026-05-06 19:05 | 53.33639 | -2.30151 | 239 ft | 128 kts | 52° |
| 2026-05-06 19:06 | 53.34091 | -2.29219 | 230 ft | 78 kts | 50° |
| 2026-05-06 19:06 | 53.34323 | -2.28751 | 225 ft | 29 kts | 47° |
| 2026-05-06 19:06 | 53.34476 | -2.28566 | 227 ft | 25 kts | 26° |
| 2026-05-06 19:06 | 53.34618 | -2.28466 | 230 ft | 17 kts | 22° |
| 2026-05-06 19:07 | 53.34723 | -2.28372 | 230 ft | 18 kts | 38° |
| 2026-05-06 19:07 | 53.34806 | -2.28204 | 232 ft | 18 kts | 51° |
| 2026-05-06 19:07 | 53.34892 | -2.28026 | 230 ft | 21 kts | 51° |
| 2026-05-06 19:07 | 53.34979 | -2.27851 | 229 ft | 20 kts | 50° |
| 2026-05-06 19:08 | 53.35070 | -2.27661 | 233 ft | 21 kts | 52° |
| 2026-05-06 19:08 | 53.35163 | -2.27469 | 236 ft | 22 kts | 50° |
| 2026-05-06 19:08 | 53.35257 | -2.27273 | 239 ft | 22 kts | 51° |
| 2026-05-06 19:08 | 53.35341 | -2.27190 | 244 ft | 12 kts | 358° |
| 2026-05-06 19:09 | 53.35408 | -2.27227 | 246 ft | 9 kts | 335° |
| 2026-05-06 19:09 | 53.35458 | -2.27294 | 248 ft | 15 kts | 319° |
| 2026-05-06 19:09 | 53.35564 | -2.27445 | 246 ft | 16 kts | 322° |
| 2026-05-06 19:09 | 53.35640 | -2.27545 | 246 ft | 12 kts | 321° |
| 2026-05-06 19:10 | 53.35698 | -2.27617 | 247 ft | 9 kts | 333° |
| 2026-05-06 19:10 | 53.35740 | -2.27645 | 249 ft | 4 kts | 340° |
| 2026-05-06 19:10 | 53.35755 | -2.27654 | 250 ft | 2 kts | 340° |
| 2026-05-06 19:10 | 53.35810 | -2.27716 | 252 ft | 0 kts | 317° |
| 2026-05-06 19:11 | 53.35821 | -2.27737 | 252 ft | 8 kts | 310° |
| 2026-05-06 19:11 | 53.35853 | -2.27800 | 253 ft | 6 kts | 316° |
| 2026-05-06 19:12 | 53.35926 | -2.27850 | 255 ft | 18 kts | 347° |
| 2026-05-06 19:12 | 53.35996 | -2.27898 | 255 ft | 10 kts | 335° |
| 2026-05-06 19:12 | 53.36054 | -2.27875 | 255 ft | 8 kts | 14° |
| 2026-05-06 19:12 | 53.36105 | -2.27908 | 255 ft | 11 kts | 328° |
| 2026-05-06 19:13 | 53.36212 | -2.28045 | 255 ft | 27 kts | 319° |
| 2026-05-06 19:13 | 53.36320 | -2.28239 | 255 ft | 20 kts | 312° |
| 2026-05-06 19:13 | 53.36403 | -2.28408 | 255 ft | 18 kts | 296° |
| 2026-05-06 19:13 | 53.36469 | -2.28567 | 255 ft | 16 kts | 315° |
| 2026-05-06 19:14 | 53.36534 | -2.28680 | 255 ft | 13 kts | 313° |
| 2026-05-06 19:14 | 53.36585 | -2.28790 | 255 ft | 11 kts | 297° |
| 2026-05-06 19:14 | 53.36633 | -2.28883 | 255 ft | 10 kts | 338° |
| 2026-05-06 19:14 | 53.36686 | -2.28942 | 255 ft | 9 kts | 312° |
| 2026-05-06 19:15 | 53.36729 | -2.29016 | 255 ft | 10 kts | 319° |
| 2026-05-06 19:15 | 53.36800 | -2.29024 | 255 ft | 10 kts | 19° |
| 2026-05-06 19:15 | 53.36857 | -2.28955 | 255 ft | 10 kts | 44° |
| 2026-05-06 19:15 | 53.36907 | -2.28872 | 255 ft | 10 kts | 45° |
| 2026-05-06 19:16 | 53.36940 | -2.28811 | 255 ft | 2 kts | 63° |
| 2026-05-06 19:16 | 53.36939 | -2.28791 | 255 ft | 2 kts | 98° |
| 2026-05-06 19:16 | 53.36936 | -2.28776 | 255 ft | 1 kts | 114° |
| 2026-05-06 19:16 | 53.36931 | -2.28765 | 255 ft | 1 kts | 124° |
| 2026-05-06 19:17 | 53.36926 | -2.28755 | 255 ft | 1 kts | 129° |
| 2026-05-06 19:17 | 53.36921 | -2.28746 | 255 ft | 1 kts | 131° |
| 2026-05-06 19:17 | 53.36919 | -2.28743 | 255 ft | 0 kts | 131° |